sensor_id;sensor_type;location;lat;lon;timestamp;temperature;humidity
11748;DHT22;5931;48.832;9.072;2023-12-07T00:01:09;1.50;99.90
11748;DHT22;5931;48.832;9.072;2023-12-07T00:03:35;1.50;99.90
11748;DHT22;5931;48.832;9.072;2023-12-07T00:06:00;1.50;99.90
11748;DHT22;5931;48.832;9.072;2023-12-07T00:08:26;1.50;99.90
11748;DHT22;5931;48.832;9.072;2023-12-07T00:10:52;1.60;99.90
11748;DHT22;5931;48.832;9.072;2023-12-07T00:13:18;1.60;99.90
11748;DHT22;5931;48.832;9.072;2023-12-07T00:15:44;1.60;99.90
11748;DHT22;5931;48.832;9.072;2023-12-07T00:18:10;1.60;99.90
11748;DHT22;5931;48.832;9.072;2023-12-07T00:20:35;1.60;99.90
11748;DHT22;5931;48.832;9.072;2023-12-07T00:23:01;1.70;99.90
11748;DHT22;5931;48.832;9.072;2023-12-07T00:25:27;1.70;99.90
11748;DHT22;5931;48.832;9.072;2023-12-07T00:27:53;1.70;99.90
11748;DHT22;5931;48.832;9.072;2023-12-07T00:30:19;1.70;99.90
11748;DHT22;5931;48.832;9.072;2023-12-07T00:32:44;1.80;99.90
11748;DHT22;5931;48.832;9.072;2023-12-07T00:35:12;1.70;99.90
11748;DHT22;5931;48.832;9.072;2023-12-07T00:37:37;1.80;99.90
11748;DHT22;5931;48.832;9.072;2023-12-07T00:40:03;1.80;99.90
11748;DHT22;5931;48.832;9.072;2023-12-07T00:42:30;1.80;99.90
11748;DHT22;5931;48.832;9.072;2023-12-07T00:44:56;1.80;99.90
11748;DHT22;5931;48.832;9.072;2023-12-07T00:47:22;1.80;99.90
11748;DHT22;5931;48.832;9.072;2023-12-07T00:49:49;1.80;99.90
11748;DHT22;5931;48.832;9.072;2023-12-07T00:52:14;1.80;99.90
11748;DHT22;5931;48.832;9.072;2023-12-07T00:54:40;1.80;99.90
11748;DHT22;5931;48.832;9.072;2023-12-07T00:57:06;1.80;99.90
11748;DHT22;5931;48.832;9.072;2023-12-07T00:59:32;1.80;99.90
11748;DHT22;5931;48.832;9.072;2023-12-07T01:02:06;1.90;99.90
11748;DHT22;5931;48.832;9.072;2023-12-07T01:04:32;1.90;99.90
11748;DHT22;5931;48.832;9.072;2023-12-07T01:06:58;1.90;99.90
11748;DHT22;5931;48.832;9.072;2023-12-07T01:09:24;1.90;99.90
11748;DHT22;5931;48.832;9.072;2023-12-07T01:11:51;1.90;99.90
11748;DHT22;5931;48.832;9.072;2023-12-07T01:14:17;1.90;99.90
11748;DHT22;5931;48.832;9.072;2023-12-07T01:16:44;1.90;99.90
11748;DHT22;5931;48.832;9.072;2023-12-07T01:19:10;1.80;99.90
11748;DHT22;5931;48.832;9.072;2023-12-07T01:21:36;1.80;99.90
11748;DHT22;5931;48.832;9.072;2023-12-07T01:24:01;1.80;99.90
11748;DHT22;5931;48.832;9.072;2023-12-07T01:26:27;1.70;99.90
11748;DHT22;5931;48.832;9.072;2023-12-07T01:28:53;1.70;99.90
11748;DHT22;5931;48.832;9.072;2023-12-07T01:31:19;1.70;99.90
11748;DHT22;5931;48.832;9.072;2023-12-07T01:33:45;1.60;99.90
11748;DHT22;5931;48.832;9.072;2023-12-07T01:36:11;1.60;99.90
11748;DHT22;5931;48.832;9.072;2023-12-07T01:38:37;1.60;99.90
11748;DHT22;5931;48.832;9.072;2023-12-07T01:41:03;1.60;99.90
11748;DHT22;5931;48.832;9.072;2023-12-07T01:43:29;1.60;99.90
11748;DHT22;5931;48.832;9.072;2023-12-07T01:45:57;1.70;99.90
11748;DHT22;5931;48.832;9.072;2023-12-07T01:48:25;1.80;99.90
11748;DHT22;5931;48.832;9.072;2023-12-07T01:50:53;1.80;99.90
11748;DHT22;5931;48.832;9.072;2023-12-07T01:53:21;1.80;99.90
11748;DHT22;5931;48.832;9.072;2023-12-07T01:55:48;1.80;99.90
11748;DHT22;5931;48.832;9.072;2023-12-07T01:58:14;1.80;99.90
11748;DHT22;5931;48.832;9.072;2023-12-07T02:00:42;1.60;99.90
11748;DHT22;5931;48.832;9.072;2023-12-07T02:03:08;1.50;99.90
11748;DHT22;5931;48.832;9.072;2023-12-07T02:05:35;1.40;99.90
11748;DHT22;5931;48.832;9.072;2023-12-07T02:08:02;1.30;99.90
11748;DHT22;5931;48.832;9.072;2023-12-07T02:10:28;1.20;99.90
11748;DHT22;5931;48.832;9.072;2023-12-07T02:12:54;1.20;99.90
11748;DHT22;5931;48.832;9.072;2023-12-07T02:15:20;1.10;99.90
11748;DHT22;5931;48.832;9.072;2023-12-07T02:20:41;0.90;99.90
11748;DHT22;5931;48.832;9.072;2023-12-07T02:23:08;0.80;99.90
11748;DHT22;5931;48.832;9.072;2023-12-07T02:25:40;0.80;99.90
11748;DHT22;5931;48.832;9.072;2023-12-07T02:28:08;0.80;99.90
11748;DHT22;5931;48.832;9.072;2023-12-07T02:30:34;0.80;99.90
11748;DHT22;5931;48.832;9.072;2023-12-07T02:33:00;0.90;99.90
11748;DHT22;5931;48.832;9.072;2023-12-07T02:35:27;0.90;99.90
11748;DHT22;5931;48.832;9.072;2023-12-07T02:37:54;1.00;99.90
11748;DHT22;5931;48.832;9.072;2023-12-07T02:40:27;1.20;99.90
11748;DHT22;5931;48.832;9.072;2023-12-07T02:42:54;1.20;99.90
11748;DHT22;5931;48.832;9.072;2023-12-07T02:45:20;1.30;99.90
11748;DHT22;5931;48.832;9.072;2023-12-07T02:47:46;1.40;99.90
11748;DHT22;5931;48.832;9.072;2023-12-07T02:50:13;1.40;99.90
11748;DHT22;5931;48.832;9.072;2023-12-07T02:52:39;1.40;99.90
11748;DHT22;5931;48.832;9.072;2023-12-07T02:55:05;1.40;99.90
11748;DHT22;5931;48.832;9.072;2023-12-07T02:57:32;1.30;99.90
11748;DHT22;5931;48.832;9.072;2023-12-07T03:00:00;1.20;99.90
11748;DHT22;5931;48.832;9.072;2023-12-07T03:02:29;1.10;99.90
11748;DHT22;5931;48.832;9.072;2023-12-07T03:04:55;1.00;99.90
11748;DHT22;5931;48.832;9.072;2023-12-07T03:07:20;0.80;99.90
11748;DHT22;5931;48.832;9.072;2023-12-07T03:09:46;0.80;99.90
11748;DHT22;5931;48.832;9.072;2023-12-07T03:12:12;0.70;99.90
11748;DHT22;5931;48.832;9.072;2023-12-07T03:14:38;0.70;99.90
11748;DHT22;5931;48.832;9.072;2023-12-07T03:17:03;0.60;99.90
11748;DHT22;5931;48.832;9.072;2023-12-07T03:19:29;0.50;99.90
11748;DHT22;5931;48.832;9.072;2023-12-07T03:21:55;0.40;99.90
11748;DHT22;5931;48.832;9.072;2023-12-07T03:24:21;0.30;99.90
11748;DHT22;5931;48.832;9.072;2023-12-07T03:26:47;0.20;99.90
11748;DHT22;5931;48.832;9.072;2023-12-07T03:29:12;0.00;99.90
11748;DHT22;5931;48.832;9.072;2023-12-07T03:31:39;0.00;99.90
11748;DHT22;5931;48.832;9.072;2023-12-07T03:34:05;0.00;99.90
11748;DHT22;5931;48.832;9.072;2023-12-07T03:36:31;-0.10;99.90
11748;DHT22;5931;48.832;9.072;2023-12-07T03:38:57;-0.10;99.90
11748;DHT22;5931;48.832;9.072;2023-12-07T03:41:22;-0.10;99.90
11748;DHT22;5931;48.832;9.072;2023-12-07T03:43:48;-0.20;99.90
11748;DHT22;5931;48.832;9.072;2023-12-07T03:46:14;-0.30;99.90
11748;DHT22;5931;48.832;9.072;2023-12-07T03:48:40;-0.40;99.90
11748;DHT22;5931;48.832;9.072;2023-12-07T03:51:06;-0.40;99.90
11748;DHT22;5931;48.832;9.072;2023-12-07T03:53:32;-0.50;99.90
11748;DHT22;5931;48.832;9.072;2023-12-07T03:55:57;-0.50;99.90
11748;DHT22;5931;48.832;9.072;2023-12-07T03:58:23;-0.50;99.90
11748;DHT22;5931;48.832;9.072;2023-12-07T04:00:49;-0.60;99.90
11748;DHT22;5931;48.832;9.072;2023-12-07T04:03:14;-0.60;99.90
11748;DHT22;5931;48.832;9.072;2023-12-07T04:05:40;-0.70;99.90
11748;DHT22;5931;48.832;9.072;2023-12-07T04:08:06;-0.80;99.90
11748;DHT22;5931;48.832;9.072;2023-12-07T04:10:32;-0.80;99.90
11748;DHT22;5931;48.832;9.072;2023-12-07T04:12:57;-0.70;99.90
11748;DHT22;5931;48.832;9.072;2023-12-07T04:15:23;-0.80;99.90
11748;DHT22;5931;48.832;9.072;2023-12-07T04:17:50;-0.80;99.90
11748;DHT22;5931;48.832;9.072;2023-12-07T04:20:16;-0.80;99.90
11748;DHT22;5931;48.832;9.072;2023-12-07T04:22:43;-0.80;99.90
11748;DHT22;5931;48.832;9.072;2023-12-07T04:25:09;-0.90;99.90
11748;DHT22;5931;48.832;9.072;2023-12-07T04:27:36;-1.00;99.90
11748;DHT22;5931;48.832;9.072;2023-12-07T04:30:03;-1.10;99.90
11748;DHT22;5931;48.832;9.072;2023-12-07T04:32:29;-1.10;99.90
11748;DHT22;5931;48.832;9.072;2023-12-07T04:34:55;-1.20;99.90
11748;DHT22;5931;48.832;9.072;2023-12-07T04:37:21;-1.10;99.90
11748;DHT22;5931;48.832;9.072;2023-12-07T04:39:47;-1.10;99.90
11748;DHT22;5931;48.832;9.072;2023-12-07T04:42:12;-1.10;99.90
11748;DHT22;5931;48.832;9.072;2023-12-07T04:44:38;-1.10;99.90
11748;DHT22;5931;48.832;9.072;2023-12-07T04:47:04;-1.20;99.90
11748;DHT22;5931;48.832;9.072;2023-12-07T04:49:30;-1.20;99.90
11748;DHT22;5931;48.832;9.072;2023-12-07T04:51:56;-1.20;99.90
11748;DHT22;5931;48.832;9.072;2023-12-07T04:54:21;-1.20;99.90
11748;DHT22;5931;48.832;9.072;2023-12-07T04:56:47;-1.30;99.90
11748;DHT22;5931;48.832;9.072;2023-12-07T04:59:13;-1.30;99.90
11748;DHT22;5931;48.832;9.072;2023-12-07T05:01:39;-1.30;99.90
11748;DHT22;5931;48.832;9.072;2023-12-07T05:04:05;-1.30;99.90
11748;DHT22;5931;48.832;9.072;2023-12-07T05:06:31;-1.40;99.90
11748;DHT22;5931;48.832;9.072;2023-12-07T05:08:57;-1.40;99.90
11748;DHT22;5931;48.832;9.072;2023-12-07T05:11:23;-1.50;99.90
11748;DHT22;5931;48.832;9.072;2023-12-07T05:13:49;-1.50;99.90
11748;DHT22;5931;48.832;9.072;2023-12-07T05:16:15;-1.60;99.90
11748;DHT22;5931;48.832;9.072;2023-12-07T05:18:40;-1.70;99.90
11748;DHT22;5931;48.832;9.072;2023-12-07T05:21:07;-1.80;99.90
11748;DHT22;5931;48.832;9.072;2023-12-07T05:23:33;-1.90;99.90
11748;DHT22;5931;48.832;9.072;2023-12-07T05:25:59;-1.90;99.90
11748;DHT22;5931;48.832;9.072;2023-12-07T05:28:26;-1.90;99.90
11748;DHT22;5931;48.832;9.072;2023-12-07T05:30:52;-2.00;99.90
11748;DHT22;5931;48.832;9.072;2023-12-07T05:33:18;-2.00;99.90
11748;DHT22;5931;48.832;9.072;2023-12-07T05:35:47;-2.10;99.90
11748;DHT22;5931;48.832;9.072;2023-12-07T05:38:13;-2.10;99.90
11748;DHT22;5931;48.832;9.072;2023-12-07T05:40:39;-2.10;99.90
11748;DHT22;5931;48.832;9.072;2023-12-07T05:43:05;-2.20;99.90
11748;DHT22;5931;48.832;9.072;2023-12-07T05:45:31;-2.20;99.90
11748;DHT22;5931;48.832;9.072;2023-12-07T05:47:57;-2.20;99.90
11748;DHT22;5931;48.832;9.072;2023-12-07T05:50:22;-2.30;99.90
11748;DHT22;5931;48.832;9.072;2023-12-07T05:52:48;-2.30;99.90
11748;DHT22;5931;48.832;9.072;2023-12-07T05:55:14;-2.30;99.90
11748;DHT22;5931;48.832;9.072;2023-12-07T05:57:40;-2.30;99.90
11748;DHT22;5931;48.832;9.072;2023-12-07T06:00:07;-2.30;99.90
11748;DHT22;5931;48.832;9.072;2023-12-07T06:02:37;-2.20;99.90
11748;DHT22;5931;48.832;9.072;2023-12-07T06:05:03;-2.20;99.90
11748;DHT22;5931;48.832;9.072;2023-12-07T06:07:30;-2.30;99.90
11748;DHT22;5931;48.832;9.072;2023-12-07T06:09:56;-2.30;99.90
11748;DHT22;5931;48.832;9.072;2023-12-07T06:12:22;-2.30;99.90
11748;DHT22;5931;48.832;9.072;2023-12-07T06:14:48;-2.40;99.90
11748;DHT22;5931;48.832;9.072;2023-12-07T06:17:14;-2.40;99.90
11748;DHT22;5931;48.832;9.072;2023-12-07T06:19:40;-2.40;99.90
11748;DHT22;5931;48.832;9.072;2023-12-07T06:22:06;-2.30;99.90
11748;DHT22;5931;48.832;9.072;2023-12-07T06:24:32;-2.40;99.90
11748;DHT22;5931;48.832;9.072;2023-12-07T06:26:58;-2.40;99.90
11748;DHT22;5931;48.832;9.072;2023-12-07T06:29:25;-2.50;99.90
11748;DHT22;5931;48.832;9.072;2023-12-07T06:31:51;-2.50;99.90
11748;DHT22;5931;48.832;9.072;2023-12-07T06:34:16;-2.50;99.90
11748;DHT22;5931;48.832;9.072;2023-12-07T06:36:42;-2.50;99.90
11748;DHT22;5931;48.832;9.072;2023-12-07T06:39:09;-2.50;99.90
11748;DHT22;5931;48.832;9.072;2023-12-07T06:41:35;-2.60;99.90
11748;DHT22;5931;48.832;9.072;2023-12-07T06:44:01;-2.60;99.90
11748;DHT22;5931;48.832;9.072;2023-12-07T06:46:27;-2.60;99.90
11748;DHT22;5931;48.832;9.072;2023-12-07T06:48:53;-2.50;99.90
11748;DHT22;5931;48.832;9.072;2023-12-07T06:51:19;-2.50;99.90
11748;DHT22;5931;48.832;9.072;2023-12-07T06:53:45;-2.50;99.90
11748;DHT22;5931;48.832;9.072;2023-12-07T06:56:11;-2.50;99.90
11748;DHT22;5931;48.832;9.072;2023-12-07T06:58:40;-2.60;99.90
11748;DHT22;5931;48.832;9.072;2023-12-07T07:01:05;-2.60;99.90
11748;DHT22;5931;48.832;9.072;2023-12-07T07:03:31;-2.60;99.90
11748;DHT22;5931;48.832;9.072;2023-12-07T07:05:57;-2.50;99.90
11748;DHT22;5931;48.832;9.072;2023-12-07T07:08:24;-2.50;99.90
11748;DHT22;5931;48.832;9.072;2023-12-07T07:10:50;-2.60;99.90
11748;DHT22;5931;48.832;9.072;2023-12-07T07:13:16;-2.60;99.90
11748;DHT22;5931;48.832;9.072;2023-12-07T07:15:42;-2.60;99.90
11748;DHT22;5931;48.832;9.072;2023-12-07T07:18:11;-2.60;99.90
11748;DHT22;5931;48.832;9.072;2023-12-07T07:20:37;-2.40;99.90
11748;DHT22;5931;48.832;9.072;2023-12-07T07:23:03;-2.30;99.90
11748;DHT22;5931;48.832;9.072;2023-12-07T07:25:29;-2.30;99.90
11748;DHT22;5931;48.832;9.072;2023-12-07T07:27:55;-2.40;99.90
11748;DHT22;5931;48.832;9.072;2023-12-07T07:30:21;-2.30;99.90
11748;DHT22;5931;48.832;9.072;2023-12-07T07:32:47;-2.40;99.90
11748;DHT22;5931;48.832;9.072;2023-12-07T07:35:14;-2.40;99.90
11748;DHT22;5931;48.832;9.072;2023-12-07T07:37:40;-2.50;99.90
11748;DHT22;5931;48.832;9.072;2023-12-07T07:40:08;-2.50;99.90
11748;DHT22;5931;48.832;9.072;2023-12-07T07:42:40;-2.40;99.90
11748;DHT22;5931;48.832;9.072;2023-12-07T07:45:07;-2.30;99.90
11748;DHT22;5931;48.832;9.072;2023-12-07T07:47:33;-2.30;99.90
11748;DHT22;5931;48.832;9.072;2023-12-07T07:49:59;-2.30;99.90
11748;DHT22;5931;48.832;9.072;2023-12-07T07:52:29;-2.30;99.90
11748;DHT22;5931;48.832;9.072;2023-12-07T07:54:55;-2.20;99.90
11748;DHT22;5931;48.832;9.072;2023-12-07T07:57:20;-2.10;99.90
11748;DHT22;5931;48.832;9.072;2023-12-07T07:59:46;-2.10;99.90
11748;DHT22;5931;48.832;9.072;2023-12-07T08:02:12;-2.00;99.90
11748;DHT22;5931;48.832;9.072;2023-12-07T08:04:38;-1.90;99.90
11748;DHT22;5931;48.832;9.072;2023-12-07T08:07:04;-1.70;99.90
11748;DHT22;5931;48.832;9.072;2023-12-07T08:09:29;-1.50;99.90
11748;DHT22;5931;48.832;9.072;2023-12-07T08:11:55;-1.10;99.90
11748;DHT22;5931;48.832;9.072;2023-12-07T08:14:21;-0.70;99.90
11748;DHT22;5931;48.832;9.072;2023-12-07T08:16:47;-0.40;99.90
11748;DHT22;5931;48.832;9.072;2023-12-07T08:19:13;-0.30;99.90
11748;DHT22;5931;48.832;9.072;2023-12-07T08:21:39;-0.30;99.90
11748;DHT22;5931;48.832;9.072;2023-12-07T08:24:05;-0.40;99.90
11748;DHT22;5931;48.832;9.072;2023-12-07T08:26:34;-0.40;99.90
11748;DHT22;5931;48.832;9.072;2023-12-07T08:28:59;-0.50;99.90
11748;DHT22;5931;48.832;9.072;2023-12-07T08:31:25;-0.50;99.90
11748;DHT22;5931;48.832;9.072;2023-12-07T08:33:51;-0.50;99.90
11748;DHT22;5931;48.832;9.072;2023-12-07T08:36:17;-0.40;99.90
11748;DHT22;5931;48.832;9.072;2023-12-07T08:38:43;-0.40;99.90
11748;DHT22;5931;48.832;9.072;2023-12-07T08:41:09;-0.40;99.90
11748;DHT22;5931;48.832;9.072;2023-12-07T08:43:34;-0.40;99.90
11748;DHT22;5931;48.832;9.072;2023-12-07T08:46:00;-0.40;99.90
11748;DHT22;5931;48.832;9.072;2023-12-07T08:48:26;-0.40;99.90
11748;DHT22;5931;48.832;9.072;2023-12-07T08:50:52;-0.40;99.90
11748;DHT22;5931;48.832;9.072;2023-12-07T08:53:18;-0.40;99.90
11748;DHT22;5931;48.832;9.072;2023-12-07T08:55:43;-0.30;99.90
11748;DHT22;5931;48.832;9.072;2023-12-07T08:58:09;-0.20;99.90
11748;DHT22;5931;48.832;9.072;2023-12-07T09:00:37;-0.10;99.90
11748;DHT22;5931;48.832;9.072;2023-12-07T09:03:04;-0.10;99.90
11748;DHT22;5931;48.832;9.072;2023-12-07T09:05:30;0.00;99.90
11748;DHT22;5931;48.832;9.072;2023-12-07T09:07:56;0.00;99.90
11748;DHT22;5931;48.832;9.072;2023-12-07T09:10:22;0.10;99.90
11748;DHT22;5931;48.832;9.072;2023-12-07T09:12:48;0.20;99.90
11748;DHT22;5931;48.832;9.072;2023-12-07T09:15:14;0.30;99.90
11748;DHT22;5931;48.832;9.072;2023-12-07T09:17:40;0.30;99.90
11748;DHT22;5931;48.832;9.072;2023-12-07T09:20:07;0.40;99.90
11748;DHT22;5931;48.832;9.072;2023-12-07T09:22:49;0.40;99.90
11748;DHT22;5931;48.832;9.072;2023-12-07T09:25:17;0.50;99.90
11748;DHT22;5931;48.832;9.072;2023-12-07T09:27:43;0.60;99.90
11748;DHT22;5931;48.832;9.072;2023-12-07T09:30:10;0.70;99.90
11748;DHT22;5931;48.832;9.072;2023-12-07T09:32:42;0.80;99.90
11748;DHT22;5931;48.832;9.072;2023-12-07T09:35:09;0.90;99.90
11748;DHT22;5931;48.832;9.072;2023-12-07T09:37:45;0.90;99.90
11748;DHT22;5931;48.832;9.072;2023-12-07T09:40:17;1.00;99.90
11748;DHT22;5931;48.832;9.072;2023-12-07T09:42:44;1.00;99.90
11748;DHT22;5931;48.832;9.072;2023-12-07T09:45:10;1.10;99.90
11748;DHT22;5931;48.832;9.072;2023-12-07T09:47:37;1.20;99.90
11748;DHT22;5931;48.832;9.072;2023-12-07T09:50:05;1.30;99.90
11748;DHT22;5931;48.832;9.072;2023-12-07T09:52:31;1.30;99.90
11748;DHT22;5931;48.832;9.072;2023-12-07T09:54:57;1.40;99.90
11748;DHT22;5931;48.832;9.072;2023-12-07T09:57:24;1.40;99.90
11748;DHT22;5931;48.832;9.072;2023-12-07T09:59:50;1.50;99.90
11748;DHT22;5931;48.832;9.072;2023-12-07T10:02:16;1.70;99.90
11748;DHT22;5931;48.832;9.072;2023-12-07T10:04:43;1.80;99.90
11748;DHT22;5931;48.832;9.072;2023-12-07T10:07:09;1.90;99.90
11748;DHT22;5931;48.832;9.072;2023-12-07T10:09:43;2.10;99.90
11748;DHT22;5931;48.832;9.072;2023-12-07T10:12:10;2.10;99.90
11748;DHT22;5931;48.832;9.072;2023-12-07T10:14:35;2.20;99.90
11748;DHT22;5931;48.832;9.072;2023-12-07T10:17:03;2.20;99.90
11748;DHT22;5931;48.832;9.072;2023-12-07T10:19:29;2.30;99.90
11748;DHT22;5931;48.832;9.072;2023-12-07T10:21:55;2.40;99.90
11748;DHT22;5931;48.832;9.072;2023-12-07T10:24:23;2.60;99.90
11748;DHT22;5931;48.832;9.072;2023-12-07T10:26:51;2.70;99.90
11748;DHT22;5931;48.832;9.072;2023-12-07T10:29:17;2.80;99.90
11748;DHT22;5931;48.832;9.072;2023-12-07T10:31:44;3.00;99.90
11748;DHT22;5931;48.832;9.072;2023-12-07T10:34:12;3.00;99.90
11748;DHT22;5931;48.832;9.072;2023-12-07T10:36:38;3.10;99.90
11748;DHT22;5931;48.832;9.072;2023-12-07T10:39:04;3.10;99.90
11748;DHT22;5931;48.832;9.072;2023-12-07T10:41:34;3.10;99.90
11748;DHT22;5931;48.832;9.072;2023-12-07T10:44:01;3.20;99.90
11748;DHT22;5931;48.832;9.072;2023-12-07T10:46:29;3.30;99.90
11748;DHT22;5931;48.832;9.072;2023-12-07T10:49:03;3.40;99.90
11748;DHT22;5931;48.832;9.072;2023-12-07T10:51:41;3.40;99.90
11748;DHT22;5931;48.832;9.072;2023-12-07T10:54:07;3.40;99.90
11748;DHT22;5931;48.832;9.072;2023-12-07T10:56:45;3.40;99.90
11748;DHT22;5931;48.832;9.072;2023-12-07T10:59:12;3.50;99.90
11748;DHT22;5931;48.832;9.072;2023-12-07T11:01:42;3.50;99.90
11748;DHT22;5931;48.832;9.072;2023-12-07T11:04:13;3.60;99.90
11748;DHT22;5931;48.832;9.072;2023-12-07T11:06:40;3.60;99.90
11748;DHT22;5931;48.832;9.072;2023-12-07T11:09:09;3.60;99.90
11748;DHT22;5931;48.832;9.072;2023-12-07T11:11:41;3.70;99.90
11748;DHT22;5931;48.832;9.072;2023-12-07T11:14:09;3.70;99.90
11748;DHT22;5931;48.832;9.072;2023-12-07T11:16:42;3.80;99.90
11748;DHT22;5931;48.832;9.072;2023-12-07T11:19:44;3.80;99.90
11748;DHT22;5931;48.832;9.072;2023-12-07T11:22:11;3.90;99.90
11748;DHT22;5931;48.832;9.072;2023-12-07T11:24:38;3.90;99.90
11748;DHT22;5931;48.832;9.072;2023-12-07T11:27:04;3.90;99.90
11748;DHT22;5931;48.832;9.072;2023-12-07T11:29:31;4.00;99.90
11748;DHT22;5931;48.832;9.072;2023-12-07T11:32:03;4.00;99.90
11748;DHT22;5931;48.832;9.072;2023-12-07T11:34:40;3.90;99.90
11748;DHT22;5931;48.832;9.072;2023-12-07T11:37:06;4.20;99.90
11748;DHT22;5931;48.832;9.072;2023-12-07T11:39:37;4.30;99.90
11748;DHT22;5931;48.832;9.072;2023-12-07T11:42:07;4.40;99.90
11748;DHT22;5931;48.832;9.072;2023-12-07T11:44:34;4.30;99.90
11748;DHT22;5931;48.832;9.072;2023-12-07T11:47:04;4.30;99.90
11748;DHT22;5931;48.832;9.072;2023-12-07T11:49:31;4.20;99.90
11748;DHT22;5931;48.832;9.072;2023-12-07T11:51:58;4.30;99.90
11748;DHT22;5931;48.832;9.072;2023-12-07T11:54:26;4.30;99.90
11748;DHT22;5931;48.832;9.072;2023-12-07T11:56:55;4.30;99.90
11748;DHT22;5931;48.832;9.072;2023-12-07T11:59:22;4.60;99.90
11748;DHT22;5931;48.832;9.072;2023-12-07T12:01:51;4.60;99.90
11748;DHT22;5931;48.832;9.072;2023-12-07T12:04:18;4.50;99.90
11748;DHT22;5931;48.832;9.072;2023-12-07T12:06:44;4.50;99.90
11748;DHT22;5931;48.832;9.072;2023-12-07T12:09:14;4.40;99.90
11748;DHT22;5931;48.832;9.072;2023-12-07T12:11:48;4.40;99.90
11748;DHT22;5931;48.832;9.072;2023-12-07T12:14:17;4.40;99.90
11748;DHT22;5931;48.832;9.072;2023-12-07T12:16:45;4.40;99.90
11748;DHT22;5931;48.832;9.072;2023-12-07T12:19:11;4.30;99.90
11748;DHT22;5931;48.832;9.072;2023-12-07T12:21:37;4.30;99.90
11748;DHT22;5931;48.832;9.072;2023-12-07T12:24:07;4.20;99.90
11748;DHT22;5931;48.832;9.072;2023-12-07T12:26:34;4.20;99.90
11748;DHT22;5931;48.832;9.072;2023-12-07T12:29:02;4.20;99.90
11748;DHT22;5931;48.832;9.072;2023-12-07T12:31:29;4.20;99.90
11748;DHT22;5931;48.832;9.072;2023-12-07T12:33:55;4.20;99.90
11748;DHT22;5931;48.832;9.072;2023-12-07T12:36:21;4.30;99.90
11748;DHT22;5931;48.832;9.072;2023-12-07T12:38:49;4.30;99.90
11748;DHT22;5931;48.832;9.072;2023-12-07T12:41:22;4.30;99.90
11748;DHT22;5931;48.832;9.072;2023-12-07T12:43:48;4.30;99.90
11748;DHT22;5931;48.832;9.072;2023-12-07T12:46:15;4.20;99.90
11748;DHT22;5931;48.832;9.072;2023-12-07T12:48:54;4.20;99.90
11748;DHT22;5931;48.832;9.072;2023-12-07T12:51:22;4.20;99.90
11748;DHT22;5931;48.832;9.072;2023-12-07T12:53:48;4.20;99.90
11748;DHT22;5931;48.832;9.072;2023-12-07T12:56:16;4.20;99.90
11748;DHT22;5931;48.832;9.072;2023-12-07T12:58:42;4.10;99.90
11748;DHT22;5931;48.832;9.072;2023-12-07T13:01:08;4.20;99.90
11748;DHT22;5931;48.832;9.072;2023-12-07T13:03:34;4.20;99.90
11748;DHT22;5931;48.832;9.072;2023-12-07T13:06:00;4.30;99.90
11748;DHT22;5931;48.832;9.072;2023-12-07T13:08:25;4.30;99.90
11748;DHT22;5931;48.832;9.072;2023-12-07T13:10:51;4.20;99.90
11748;DHT22;5931;48.832;9.072;2023-12-07T13:13:17;4.20;99.90
11748;DHT22;5931;48.832;9.072;2023-12-07T13:15:43;4.20;99.90
11748;DHT22;5931;48.832;9.072;2023-12-07T13:18:09;4.20;99.90
11748;DHT22;5931;48.832;9.072;2023-12-07T13:20:35;4.20;99.90
11748;DHT22;5931;48.832;9.072;2023-12-07T13:23:01;4.20;99.90
11748;DHT22;5931;48.832;9.072;2023-12-07T13:25:26;4.20;99.90
11748;DHT22;5931;48.832;9.072;2023-12-07T13:27:52;4.20;99.90
11748;DHT22;5931;48.832;9.072;2023-12-07T13:30:18;4.10;99.90
11748;DHT22;5931;48.832;9.072;2023-12-07T13:32:44;4.10;99.90
11748;DHT22;5931;48.832;9.072;2023-12-07T13:35:10;4.10;99.90
11748;DHT22;5931;48.832;9.072;2023-12-07T13:37:35;4.10;99.90
11748;DHT22;5931;48.832;9.072;2023-12-07T13:40:02;4.00;99.90
11748;DHT22;5931;48.832;9.072;2023-12-07T13:42:30;4.00;99.90
11748;DHT22;5931;48.832;9.072;2023-12-07T13:44:57;4.00;99.90
11748;DHT22;5931;48.832;9.072;2023-12-07T13:47:24;4.00;99.90
11748;DHT22;5931;48.832;9.072;2023-12-07T13:49:55;4.10;99.90
11748;DHT22;5931;48.832;9.072;2023-12-07T13:52:22;4.10;99.90
11748;DHT22;5931;48.832;9.072;2023-12-07T13:54:48;4.10;99.90
11748;DHT22;5931;48.832;9.072;2023-12-07T13:57:14;4.20;99.90
11748;DHT22;5931;48.832;9.072;2023-12-07T13:59:40;4.20;99.90
11748;DHT22;5931;48.832;9.072;2023-12-07T14:02:06;4.10;99.90
11748;DHT22;5931;48.832;9.072;2023-12-07T14:04:36;4.10;99.90
11748;DHT22;5931;48.832;9.072;2023-12-07T14:07:14;4.10;99.90
11748;DHT22;5931;48.832;9.072;2023-12-07T14:09:42;4.20;99.90
11748;DHT22;5931;48.832;9.072;2023-12-07T14:12:09;4.10;99.90
11748;DHT22;5931;48.832;9.072;2023-12-07T14:14:41;4.20;99.90
11748;DHT22;5931;48.832;9.072;2023-12-07T14:17:09;4.10;99.90
11748;DHT22;5931;48.832;9.072;2023-12-07T14:19:35;4.00;99.90
11748;DHT22;5931;48.832;9.072;2023-12-07T14:22:01;3.90;99.90
11748;DHT22;5931;48.832;9.072;2023-12-07T14:24:26;3.80;99.90
11748;DHT22;5931;48.832;9.072;2023-12-07T14:26:53;3.80;99.90
11748;DHT22;5931;48.832;9.072;2023-12-07T14:29:19;3.70;99.90
11748;DHT22;5931;48.832;9.072;2023-12-07T14:31:47;3.60;99.90
11748;DHT22;5931;48.832;9.072;2023-12-07T14:34:14;3.50;99.90
11748;DHT22;5931;48.832;9.072;2023-12-07T14:36:41;3.30;99.90
11748;DHT22;5931;48.832;9.072;2023-12-07T14:39:07;3.30;99.90
11748;DHT22;5931;48.832;9.072;2023-12-07T14:41:33;3.10;99.90
11748;DHT22;5931;48.832;9.072;2023-12-07T14:43:59;3.00;99.90
11748;DHT22;5931;48.832;9.072;2023-12-07T14:46:25;3.00;99.90
11748;DHT22;5931;48.832;9.072;2023-12-07T14:48:51;2.90;99.90
11748;DHT22;5931;48.832;9.072;2023-12-07T14:51:20;2.90;99.90
11748;DHT22;5931;48.832;9.072;2023-12-07T14:53:47;2.80;99.90
11748;DHT22;5931;48.832;9.072;2023-12-07T14:56:12;2.70;99.90
11748;DHT22;5931;48.832;9.072;2023-12-07T14:58:38;2.70;99.90
11748;DHT22;5931;48.832;9.072;2023-12-07T15:01:08;2.60;99.90
11748;DHT22;5931;48.832;9.072;2023-12-07T15:03:34;2.50;99.90
11748;DHT22;5931;48.832;9.072;2023-12-07T15:06:01;2.40;99.90
11748;DHT22;5931;48.832;9.072;2023-12-07T15:08:27;2.30;99.90
11748;DHT22;5931;48.832;9.072;2023-12-07T15:10:53;2.20;99.90
11748;DHT22;5931;48.832;9.072;2023-12-07T15:13:20;2.10;99.90
11748;DHT22;5931;48.832;9.072;2023-12-07T15:15:46;2.10;99.90
11748;DHT22;5931;48.832;9.072;2023-12-07T15:18:12;2.00;99.90
11748;DHT22;5931;48.832;9.072;2023-12-07T15:20:37;2.00;99.90
11748;DHT22;5931;48.832;9.072;2023-12-07T15:23:04;2.00;99.90
11748;DHT22;5931;48.832;9.072;2023-12-07T15:25:30;2.10;99.90
11748;DHT22;5931;48.832;9.072;2023-12-07T15:27:56;2.00;99.90
11748;DHT22;5931;48.832;9.072;2023-12-07T15:30:22;1.90;99.90
11748;DHT22;5931;48.832;9.072;2023-12-07T15:32:54;1.90;99.90
11748;DHT22;5931;48.832;9.072;2023-12-07T15:35:20;1.80;99.90
11748;DHT22;5931;48.832;9.072;2023-12-07T15:37:46;1.70;99.90
11748;DHT22;5931;48.832;9.072;2023-12-07T15:40:12;1.60;99.90
11748;DHT22;5931;48.832;9.072;2023-12-07T15:42:39;1.60;99.90
11748;DHT22;5931;48.832;9.072;2023-12-07T15:45:06;1.50;99.90
11748;DHT22;5931;48.832;9.072;2023-12-07T15:47:32;1.40;99.90
11748;DHT22;5931;48.832;9.072;2023-12-07T15:49:58;1.30;99.90
11748;DHT22;5931;48.832;9.072;2023-12-07T15:52:24;1.20;99.90
11748;DHT22;5931;48.832;9.072;2023-12-07T15:54:50;1.00;99.90
11748;DHT22;5931;48.832;9.072;2023-12-07T15:57:15;1.00;99.90